Time;durP1;ratioP1;P1;durP2;ratioP2;P2;SDS_P1;SDS_P2;PMS_P1;PMS_P2;Temp;Humidity;BMP_temperature;BMP_pressure;BME280_temperature;BME280_humidity;BME280_pressure;Samples;Min_cycle;Max_cycle;Signal;HPM_P1;HPM_P2
2023/03/01 00:02:04;;;;;;;0.70;0.70;;;;;;;7.04;95.36;100548.13;5073596;28;19912;-86
2023/03/01 00:04:30;;;;;;;0.93;0.93;;;;;;;7.14;95.14;100555.28;5073584;28;20033;-85
2023/03/01 00:06:55;;;;;;;;;;;;;;;7.34;94.89;100573.88;5072970;28;20032;-85
2023/03/01 00:09:21;;;;;;;0.93;0.93;;;;;;;7.23;94.30;100555.38;5073274;28;19916;-86
2023/03/01 00:11:46;;;;;;;;;;;;;;;7.42;94.06;100572.22;5074359;28;20028;-85
2023/03/01 00:14:11;;;;;;;;;;;;;;;7.36;93.79;100577.41;5073649;28;19923;-86
2023/03/01 00:16:40;;;;;;;0.68;0.68;;;;;;;7.13;94.81;100577.97;5073604;28;20022;-86
2023/03/01 00:19:11;;;;;;;0.47;0.47;;;;;;;7.24;95.10;100586.00;5073592;28;20048;-86
2023/03/01 00:21:37;;;;;;;0.60;0.60;;;;;;;7.34;94.20;100571.25;5073397;28;20135;-86
2023/03/01 00:24:02;;;;;;;;;;;;;;;7.46;93.19;100567.88;5074179;28;20031;-86
2023/03/01 00:26:28;;;;;;;;;;;;;;;7.33;93.42;100570.34;5074094;28;20380;-86
2023/03/01 00:28:55;;;;;;;0.75;0.75;;;;;;;7.39;93.17;100566.94;5071979;28;19908;-85
2023/03/01 00:31:26;;;;;;;0.50;0.50;;;;;;;7.48;93.19;100569.66;5073067;28;20032;-86
2023/03/01 00:33:56;;;;;;;0.57;0.57;;;;;;;7.46;92.72;100568.78;5071005;28;20501;-86
2023/03/01 00:36:24;;;;;;;0.60;0.60;;;;;;;7.43;92.83;100563.50;5073049;28;20024;-86
2023/03/01 00:38:50;;;;;;;1.15;1.15;;;;;;;7.32;92.71;100560.75;5072956;28;20068;-85
2023/03/01 00:41:16;;;;;;;;;;;;;;;7.42;93.15;100559.09;5072156;28;20545;-85
2023/03/01 00:43:42;;;;;;;0.75;0.75;;;;;;;7.27;92.97;100551.91;5072645;28;19966;-84
2023/03/01 00:46:15;;;;;;;;;;;;;;;7.31;93.56;100553.72;5073206;28;20111;-84
2023/03/01 00:48:41;;;;;;;1.05;1.00;;;;;;;7.34;92.89;100531.91;5072831;28;19924;-85
2023/03/01 00:51:07;;;;;;;;;;;;;;;7.32;92.93;100547.63;5073021;28;20039;-84
2023/03/01 00:53:33;;;;;;;0.43;0.43;;;;;;;7.21;93.07;100533.47;5072781;28;19920;-85
2023/03/01 00:55:58;;;;;;;;;;;;;;;7.14;93.95;100536.91;5072429;28;20024;-84
2023/03/01 00:58:24;;;;;;;1.48;1.45;;;;;;;7.10;93.33;100541.22;5071097;28;19916;-84
2023/03/01 01:00:50;;;;;;;;;;;;;;;6.93;94.67;100535.75;5059419;28;20461;-87
2023/03/01 01:03:15;;;;;;;0.70;0.70;;;;;;;6.83;95.47;100533.88;5062699;28;19923;-85
2023/03/01 01:05:40;;;;;;;;;;;;;;;6.84;95.45;100530.38;5065459;28;20044;-85
2023/03/01 01:08:06;;;;;;;;;;;;;;;6.85;95.96;100532.16;5072272;28;19913;-85
2023/03/01 01:10:34;;;;;;;0.80;0.80;;;;;;;6.85;95.69;100531.28;5072346;28;20065;-85
2023/03/01 01:12:59;;;;;;;0.77;0.77;;;;;;;6.95;95.04;100514.78;5072657;28;20036;-85
2023/03/01 01:15:25;;;;;;;;;;;;;;;6.81;95.47;100528.63;5073793;28;20031;-85
2023/03/01 01:17:50;;;;;;;;;;;;;;;6.92;95.52;100525.22;5073308;28;19947;-85
2023/03/01 01:20:15;;;;;;;0.50;0.50;;;;;;;7.01;95.34;100517.47;5072394;28;19916;-84
2023/03/01 01:22:41;;;;;;;;;;;;;;;7.13;94.36;100528.13;5072712;28;20031;-85
2023/03/01 01:25:07;;;;;;;1.23;1.13;;;;;;;6.85;94.32;100494.56;5072527;28;19962;-84
2023/03/01 01:27:32;;;;;;;;;;;;;;;7.10;94.58;100522.84;5072910;28;20060;-85
2023/03/01 01:29:57;;;;;;;0.50;0.50;;;;;;;7.16;94.39;100519.41;5071932;28;19916;-84
2023/03/01 01:32:23;;;;;;;;;;;;;;;7.15;93.61;100522.91;5072659;28;20083;-85
2023/03/01 01:34:48;;;;;;;;;;;;;;;7.23;93.47;100525.63;5073170;28;20289;-84
2023/03/01 01:37:13;;;;;;;0.60;0.60;;;;;;;7.16;93.36;100506.31;5072279;28;19908;-84
2023/03/01 01:39:39;;;;;;;;;;;;;;;7.29;93.07;100518.72;5072441;28;20283;-84
2023/03/01 01:42:04;;;;;;;;;;;;;;;7.31;93.10;100513.47;5072005;28;19964;-84
2023/03/01 01:44:30;;;;;;;0.60;0.60;;;;;;;7.13;92.89;100501.00;5072080;28;19919;-84
2023/03/01 01:47:00;;;;;;;0.50;0.50;;;;;;;7.20;92.83;100507.22;5071772;28;20115;-84
2023/03/01 01:49:37;;;;;;;0.88;0.88;;;;;;;6.80;94.57;100524.22;5072288;28;20020;-85
2023/03/01 01:52:13;;;;;;;1.17;1.15;;;;;;;6.81;95.95;100510.25;5071458;28;20044;-85
2023/03/01 01:54:45;;;;;;;1.58;1.48;;;;;;;6.90;95.76;100519.09;5070924;28;20033;-85
2023/03/01 01:57:15;;;;;;;0.70;0.70;;;;;;;6.99;95.14;100511.34;5071286;28;20123;-84
2023/03/01 01:59:45;;;;;;;2.58;1.38;;;;;;;6.74;96.39;100499.66;5071715;28;20029;-84
2023/03/01 02:02:11;;;;;;;1.77;1.15;;;;;;;6.92;96.24;100512.13;5071415;28;20024;-85
2023/03/01 02:04:37;;;;;;;0.50;0.50;;;;;;;6.88;96.72;100518.19;5071665;28;20082;-85
2023/03/01 02:07:13;;;;;;;;;;;;;;;6.97;96.18;100519.19;5072584;28;20471;-85
2023/03/01 02:09:40;;;;;;;0.55;0.55;;;;;;;6.90;96.49;100500.72;5071660;28;19957;-85
2023/03/01 02:12:06;;;;;;;0.68;0.68;;;;;;;6.73;97.23;100517.13;5069593;28;20405;-85
2023/03/01 02:14:32;;;;;;;;;;;;;;;6.78;98.54;100517.19;5071571;28;20024;-84
2023/03/01 02:16:57;;;;;;;0.73;0.73;;;;;;;6.85;98.20;100508.53;5071394;28;20275;-84
2023/03/01 02:19:38;;;;;;;;;;;;;;;6.69;98.38;100517.94;5072078;28;20126;-84
2023/03/01 02:22:27;;;;;;;0.75;0.75;;;;;;;6.76;99.50;100506.66;5070810;28;20444;-85
2023/03/01 02:25:04;;;;;;;1.10;1.00;;;;;;;6.72;98.60;100481.28;5070621;28;20035;-85
2023/03/01 02:27:41;;;;;;;0.80;0.80;;;;;;;6.58;98.96;100485.44;5071301;28;20028;-84
2023/03/01 02:30:07;;;;;;;0.85;0.85;;;;;;;6.91;98.86;100500.75;5071279;28;20055;-85
2023/03/01 02:32:34;;;;;;;0.90;0.90;;;;;;;6.83;98.76;100507.66;5070938;28;20036;-85
2023/03/01 02:34:59;;;;;;;0.82;0.82;;;;;;;6.65;98.64;100479.44;5070320;28;20093;-83
2023/03/01 02:37:26;;;;;;;;;;;;;;;6.91;98.45;100511.25;5071575;28;20115;-85
2023/03/01 02:40:03;;;;;;;0.95;0.95;;;;;;;6.93;99.18;100499.03;5070578;28;19916;-84
2023/03/01 02:42:36;;;;;;;0.60;0.60;;;;;;;6.84;98.33;100501.53;5070592;28;20085;-85
2023/03/01 02:45:01;;;;;;;2.03;1.73;;;;;;;6.87;98.65;100496.31;5070084;28;20024;-84
2023/03/01 02:47:26;;;;;;;;;;;;;;;6.86;98.44;100510.31;5070905;28;20174;-84
2023/03/01 02:49:52;;;;;;;;;;;;;;;6.68;99.58;100510.94;5070862;28;19916;-84
2023/03/01 02:52:39;;;;;;;4.30;1.08;;;;;;;6.59;100.00;100505.56;5070850;28;19913;-84
2023/03/01 02:55:13;;;;;;;1.02;1.02;;;;;;;6.64;100.00;100511.75;5069996;28;20036;-85
2023/03/01 02:57:42;;;;;;;0.73;0.73;;;;;;;6.80;100.00;100512.84;5070154;28;20036;-84
2023/03/01 03:00:20;;;;;;;0.50;0.50;;;;;;;6.48;100.00;100473.09;5070931;28;20262;-85
2023/03/01 03:02:47;;;;;;;0.90;0.90;;;;;;;6.57;100.00;100504.66;5070808;28;20036;-84
2023/03/01 03:05:21;;;;;;;0.60;0.60;;;;;;;6.81;99.88;100496.25;5070260;28;20115;-84
2023/03/01 03:07:48;;;;;;;0.50;0.50;;;;;;;6.70;99.45;100493.47;5070481;28;20119;-84
2023/03/01 03:10:29;;;;;;;1.42;1.42;;;;;;;6.82;99.39;100503.25;5070116;28;20040;-86
2023/03/01 03:12:57;;;;;;;1.35;1.25;;;;;;;6.70;99.61;100498.72;5070715;28;20039;-85
2023/03/01 03:15:23;;;;;;;1.35;1.33;;;;;;;6.59;100.00;100488.09;5070703;28;20102;-85
2023/03/01 03:17:50;;;;;;;0.80;0.80;;;;;;;6.73;100.00;100490.03;5070394;28;20111;-84
2023/03/01 03:20:18;;;;;;;0.60;0.60;;;;;;;6.64;100.00;100496.00;5069792;28;20045;-85
2023/03/01 03:22:49;;;;;;;0.63;0.63;;;;;;;6.62;100.00;100496.00;5070381;28;20036;-86
2023/03/01 03:25:15;;;;;;;0.90;0.90;;;;;;;6.49;100.00;100488.84;5070801;28;20029;-84
2023/03/01 03:27:43;;;;;;;0.98;0.98;;;;;;;6.59;100.00;100495.94;5070306;28;20028;-83
2023/03/01 03:30:12;;;;;;;0.40;0.40;;;;;;;6.44;100.00;100475.66;5069329;28;20119;-85
2023/03/01 03:32:41;;;;;;;1.00;1.00;;;;;;;6.57;100.00;100504.66;5067673;28;20029;-84
2023/03/01 03:35:11;;;;;;;0.63;0.63;;;;;;;6.57;100.00;100495.06;5070311;28;20025;-84
2023/03/01 03:40:22;;;;;;;0.80;0.80;;;;;;;6.60;99.65;100497.72;5054215;28;20048;-84
2023/03/01 03:42:48;;;;;;;;;;;;;;;6.59;100.00;100501.19;5050560;28;20029;-84
2023/03/01 03:45:15;;;;;;;0.93;0.90;;;;;;;6.58;100.00;100496.81;5062103;28;20373;-84
2023/03/01 03:47:41;;;;;;;0.75;0.75;;;;;;;6.68;100.00;100478.59;5069717;28;20522;-84
2023/03/01 03:50:08;;;;;;;1.75;1.48;;;;;;;6.57;100.00;100491.56;5069043;28;20047;-84
2023/03/01 03:52:33;;;;;;;0.88;0.88;;;;;;;6.42;100.00;100474.75;5069909;28;20028;-84
2023/03/01 03:54:58;;;;;;;;;;;;;;;6.49;100.00;100480.06;5070251;28;20410;-91
2023/03/01 03:57:24;;;;;;;;;;;;;;;6.49;100.00;100486.22;5070577;28;20378;-85
2023/03/01 03:59:49;;;;;;;0.87;0.87;;;;;;;6.37;100.00;100471.19;5068644;28;19928;-86
2023/03/01 04:02:21;;;;;;;;;;;;;;;6.43;100.00;100486.13;5069909;28;20421;-85
2023/03/01 04:04:49;;;;;;;0.50;0.50;;;;;;;6.45;100.00;100493.13;5069384;28;20309;-85
2023/03/01 04:07:16;;;;;;;0.50;0.50;;;;;;;6.37;100.00;100486.03;5069897;28;20028;-84
2023/03/01 04:09:43;;;;;;;0.82;0.80;;;;;;;6.35;100.00;100492.97;5068886;28;20052;-84
2023/03/01 04:12:09;;;;;;;1.42;1.33;;;;;;;6.21;100.00;100482.28;5067343;28;20037;-84
2023/03/01 04:14:34;;;;;;;;;;;;;;;6.30;100.00;100486.78;5069272;28;20116;-85
2023/03/01 04:16:59;;;;;;;0.68;0.68;;;;;;;6.25;100.00;100489.34;5069110;28;19947;-88
2023/03/01 04:19:26;;;;;;;;;;;;;;;6.34;100.00;100496.47;5073609;28;20024;-85
2023/03/01 04:21:52;;;;;;;0.63;0.63;;;;;;;6.45;100.00;100490.50;5070953;28;19924;-85
2023/03/01 04:24:18;;;;;;;0.60;0.60;;;;;;;6.26;100.00;100489.38;5067491;28;20027;-84
2023/03/01 04:26:43;;;;;;;;;;;;;;;6.25;100.00;100491.97;5073314;28;20025;-87
2023/03/01 04:29:08;;;;;;;;;;;;;;;6.42;100.00;100494.84;5072728;28;20007;-86
2023/03/01 04:31:34;;;;;;;2.07;1.93;;;;;;;6.35;100.00;100483.38;5073080;28;20382;-87
2023/03/01 04:33:59;;;;;;;;;;;;;;;6.37;100.00;100489.53;5072732;28;20040;-90
2023/03/01 04:36:26;;;;;;;;;;;;;;;6.44;100.00;100490.47;5073456;28;19916;-88
2023/03/01 04:38:52;;;;;;;1.33;1.25;;;;;;;6.42;100.00;100494.84;5060601;28;19913;-88
2023/03/01 04:41:18;;;;;;;;;;;;;;;6.46;100.00;100504.50;5073496;28;20033;-86
2023/03/01 04:43:45;;;;;;;0.93;0.93;;;;;;;6.57;100.00;100494.19;5071392;28;19943;-87
2023/03/01 04:46:16;;;;;;;1.48;1.38;;;;;;;6.48;100.00;100499.28;5073108;28;20113;-89
2023/03/01 04:48:43;;;;;;;0.82;0.82;;;;;;;6.56;100.00;100501.16;5072844;28;20038;-89
2023/03/01 04:51:08;;;;;;;1.23;1.23;;;;;;;6.56;100.00;100489.78;5072402;28;20032;-88
2023/03/01 04:53:35;;;;;;;;;;;;;;;6.75;100.00;100506.66;5073140;28;20229;-88
2023/03/01 04:56:02;;;;;;;1.10;1.02;;;;;;;6.55;100.00;100472.28;5072599;28;19920;-88
2023/03/01 04:58:28;;;;;;;1.38;1.25;;;;;;;6.46;100.00;100486.16;5071869;28;20120;-89
2023/03/01 05:00:54;;;;;;;0.60;0.60;;;;;;;6.52;100.00;100499.38;5071381;28;20482;-90
2023/03/01 05:03:20;;;;;;;;;;;;;;;6.58;100.00;100494.22;5073314;28;20089;-89
2023/03/01 05:05:48;;;;;;;1.13;1.13;;;;;;;6.55;100.00;100495.88;5071239;28;19965;-91
2023/03/01 05:08:17;;;;;;;2.00;1.90;;;;;;;6.41;100.00;100487.81;5068187;28;20430;-92
2023/03/01 05:10:48;;;;;;;1.73;0.90;;;;;;;6.56;100.00;100490.66;5064916;28;20051;-89
2023/03/01 05:13:20;;;;;;;1.40;1.30;;;;;;;6.32;100.00;100499.06;5072700;28;20038;-90
2023/03/01 05:15:46;;;;;;;3.33;1.77;;;;;;;6.26;100.00;100472.78;5071445;28;20543;-90
2023/03/01 05:18:11;;;;;;;;;;;;;;;6.49;100.00;100503.66;5072853;28;20032;-91
2023/03/01 05:20:37;;;;;;;1.65;1.55;;;;;;;6.46;100.00;100496.66;5072064;28;19922;-86
2023/03/01 05:23:05;;;;;;;1.52;1.45;;;;;;;6.50;100.00;100487.94;5072865;28;20036;-85
2023/03/01 05:25:32;;;;;;;3.17;2.15;;;;;;;6.35;100.00;100482.50;5072519;28;20028;-85
2023/03/01 05:28:04;;;;;;;2.00;1.60;;;;;;;6.44;100.00;100478.28;5072300;28;20032;-89
2023/03/01 05:30:31;;;;;;;0.50;0.50;;;;;;;6.27;100.00;100477.13;5064663;28;20120;-85
2023/03/01 05:32:56;;;;;;;1.77;1.67;;;;;;;6.28;100.00;100487.63;5071085;28;20107;-86
2023/03/01 05:35:22;;;;;;;;;;;;;;;6.48;100.00;100501.91;5073256;28;20048;-89
2023/03/01 05:37:48;;;;;;;;;;;;;;;6.70;100.00;100508.34;5071429;28;19938;-88
2023/03/01 05:40:23;;;;;;;0.57;0.57;;;;;;;6.73;100.00;100503.13;5071599;28;19916;-91
2023/03/01 05:42:53;;;;;;;1.98;1.90;;;;;;;6.72;100.00;100507.50;5072728;28;20178;-84
2023/03/01 05:45:20;;;;;;;1.25;1.25;;;;;;;6.63;100.00;100516.13;5087111;28;20442;-84
2023/03/01 05:47:48;;;;;;;0.98;0.98;;;;;;;6.49;100.00;100520.28;5071797;28;20448;-87
2023/03/01 05:50:21;;;;;;;1.27;1.20;;;;;;;6.31;100.00;100502.53;5071412;28;20125;-86
2023/03/01 05:52:56;;;;;;;0.93;0.93;;;;;;;6.50;100.00;100511.53;5070636;28;20024;-87
2023/03/01 05:55:22;;;;;;;1.48;1.48;;;;;;;6.52;100.00;100490.59;5071903;28;20032;-86
2023/03/01 05:57:48;;;;;;;;;;;;;;;6.65;100.00;100517.88;5069400;28;20032;-87
2023/03/01 06:00:21;;;;;;;1.38;1.30;;;;;;;6.47;100.00;100514.13;5070780;28;19965;-87
2023/03/01 06:02:47;;;;;;;1.27;1.27;;;;;;;6.56;100.00;100526.50;5071389;28;20029;-87
2023/03/01 06:05:13;;;;;;;;;;;;;;;6.66;100.00;100533.66;5071748;28;20099;-87
2023/03/01 06:07:39;;;;;;;0.70;0.70;;;;;;;6.42;100.00;100519.28;5086192;28;19904;-86
2023/03/01 06:10:06;;;;;;;0.73;0.73;;;;;;;6.36;100.00;100506.09;5069008;28;20040;-87
2023/03/01 06:12:34;;;;;;;1.63;1.60;;;;;;;6.43;100.00;100505.34;5070643;28;20493;-85
2023/03/01 06:14:59;;;;;;;0.93;0.80;;;;;;;6.34;100.00;100506.94;5069874;28;20028;-86
2023/03/01 06:17:25;;;;;;;;;;;;;;;6.61;100.00;100530.06;5071194;28;20042;-93
2023/03/01 06:19:50;;;;;;;0.68;0.68;;;;;;;6.33;100.00;100495.56;5071421;28;19912;-90
2023/03/01 06:22:15;;;;;;;;;;;;;;;6.55;100.00;100530.88;5067118;28;20478;-90
2023/03/01 06:24:41;;;;;;;0.55;0.55;;;;;;;6.40;100.00;100526.25;5068380;28;19912;-89
2023/03/01 06:27:06;;;;;;;;;;;;;;;6.73;100.00;100531.97;5066939;28;20028;-91
2023/03/01 06:29:32;;;;;;;;;;;;;;;6.68;100.00;100523.19;5071718;28;19912;-92
2023/03/01 06:31:57;;;;;;;1.08;1.08;;;;;;;6.50;100.00;100519.41;5068907;28;20310;-92
2023/03/01 06:34:22;;;;;;;;;;;;;;;6.72;100.00;100530.19;5071863;28;20036;-93
2023/03/01 06:36:48;;;;;;;0.60;0.60;;;;;;;6.53;100.00;100511.59;5070804;28;20400;-92
2023/03/01 06:39:13;;;;;;;;;;;;;;;6.75;100.00;100532.88;5061562;28;20035;-92
2023/03/01 06:41:38;;;;;;;0.50;0.50;;;;;;;6.71;100.00;100524.09;5082596;28;19928;-92
2023/03/01 06:44:04;;;;;;;;;;;;;;;6.76;100.00;100532.88;5088943;28;20070;-90
2023/03/01 06:46:30;;;;;;;0.75;0.75;;;;;;;6.45;100.00;100526.34;5082200;28;20018;-90
2023/03/01 06:48:56;;;;;;;1.02;0.85;;;;;;;6.58;100.00;100527.38;5096629;28;20040;-92
2023/03/01 06:51:21;;;;;;;;;;;;;;;6.68;100.00;100538.91;5105495;28;20151;-91
2023/03/01 06:53:47;;;;;;;0.50;0.50;;;;;;;6.57;100.00;100515.16;5105724;28;19931;-89
2023/03/01 06:56:12;;;;;;;;;;;;;;;6.53;100.00;100531.69;5092344;28;20039;-92
2023/03/01 06:58:37;;;;;;;0.88;0.80;;;;;;;6.73;100.00;100531.97;5079011;28;20378;-91
2023/03/01 07:01:09;;;;;;;;;;;;;;;6.71;100.00;100544.19;5071130;28;20117;-92
2023/03/01 07:03:35;;;;;;;1.02;1.02;;;;;;;6.60;100.00;100500.34;5070734;28;19939;-92
2023/03/01 07:06:00;;;;;;;;;;;;;;;6.82;100.00;100538.22;5070557;28;20486;-93
2023/03/01 07:08:26;;;;;;;0.68;0.68;;;;;;;6.67;100.00;100497.81;5069599;28;20015;-91
2023/03/01 07:11:01;;;;;;;;;;;;;;;6.92;100.00;100540.97;5070196;28;20044;-90
2023/03/01 07:13:27;;;;;;;;;;;;;;;7.03;100.00;100542.00;5070759;28;19916;-91
2023/03/01 07:15:52;;;;;;;0.50;0.50;;;;;;;7.05;99.12;100515.78;5070440;28;20400;-91
2023/03/01 07:18:18;;;;;;;;;;;;;;;6.96;99.80;100540.16;5071231;28;20159;-91
2023/03/01 07:20:43;;;;;;;;;;;;;;;6.96;99.70;100550.66;5071083;28;19916;-91
2023/03/01 07:23:08;;;;;;;0.60;0.60;;;;;;;6.88;99.72;100545.31;5070690;28;19913;-92
2023/03/01 07:25:34;;;;;;;;;;;;;;;6.94;99.01;100541.88;5070996;28;20028;-91
2023/03/01 07:27:59;;;;;;;;;;;;;;;7.12;98.72;100549.09;5070330;28;19922;-90
2023/03/01 07:30:27;;;;;;;0.82;0.82;;;;;;;7.21;98.43;100522.97;5070445;28;19912;-91
2023/03/01 07:32:52;;;;;;;0.50;0.50;;;;;;;7.25;97.65;100522.16;5068931;28;20032;-91
2023/03/01 07:35:18;;;;;;;;;;;;;;;7.41;97.98;100530.22;5070712;28;20028;-91
2023/03/01 07:37:43;;;;;;;0.43;0.43;;;;;;;7.48;97.05;100513.66;5070594;28;20336;-91
2023/03/01 07:40:09;;;;;;;;;;;;;;;7.61;96.61;100530.41;5070816;28;20387;-92
2023/03/01 07:42:35;;;;;;;0.63;0.63;;;;;;;7.51;96.78;100519.81;5069925;28;19942;-90
2023/03/01 07:45:00;;;;;;;;;;;;;;;7.52;96.24;100520.69;5070835;28;20033;-91
2023/03/01 07:47:25;;;;;;;;;;;;;;;7.44;97.11;100522.38;5070340;28;19912;-91
2023/03/01 07:49:51;;;;;;;0.50;0.50;;;;;;;7.25;96.50;100501.16;5070175;28;19965;-90
2023/03/01 07:52:16;;;;;;;;;;;;;;;7.26;97.36;100526.56;5071265;28;20406;-91
2023/03/01 07:54:44;;;;;;;;;;;;;;;7.30;96.95;100525.69;5074420;28;19957;-90
2023/03/01 07:57:10;;;;;;;1.05;1.05;;;;;;;7.21;97.64;100512.47;5074616;28;19912;-90
2023/03/01 07:59:35;;;;;;;;;;;;;;;7.41;97.28;100514.47;5074504;28;20036;-90
2023/03/01 08:02:01;;;;;;;0.55;0.55;;;;;;;7.37;96.91;100505.69;5073750;28;20370;-91
2023/03/01 08:04:26;;;;;;;;;;;;;;;7.47;95.82;100525.03;5074801;28;20133;-92
2023/03/01 08:06:54;;;;;;;0.55;0.55;;;;;;;7.24;96.52;100507.25;5073945;28;20355;-92
2023/03/01 08:09:20;;;;;;;0.55;0.55;;;;;;;7.24;97.12;100507.25;5071959;28;20040;-92
2023/03/01 08:11:45;;;;;;;;;;;;;;;7.28;96.11;100522.19;5074338;28;20032;-91
2023/03/01 08:14:11;;;;;;;0.95;0.95;;;;;;;7.03;97.20;100488.63;5073955;28;19920;-93
2023/03/01 08:16:36;;;;;;;;;;;;;;;7.23;96.97;100523.00;5073071;28;20318;-94
2023/03/01 08:19:10;;;;;;;0.50;0.50;;;;;;;7.37;96.60;100504.78;5074479;28;19959;-92
2023/03/01 08:21:36;;;;;;;0.50;0.50;;;;;;;7.28;97.08;100516.94;5073683;28;20045;-93
2023/03/01 08:24:02;;;;;;;;;;;;;;;7.16;97.70;100517.66;5074514;28;20093;-93
2023/03/01 08:26:28;;;;;;;0.52;0.52;;;;;;;7.14;97.79;100518.53;5074274;28;20399;-94
2023/03/01 08:28:53;;;;;;;;;;;;;;;7.39;97.94;100516.19;5073514;28;20032;-94
2023/03/01 08:31:20;;;;;;;0.50;0.50;;;;;;;7.29;97.72;100523.97;5073786;28;20004;-93
2023/03/01 08:33:54;;;;;;;0.50;0.50;;;;;;;7.35;97.83;100499.50;5074784;28;20068;-92
2023/03/01 08:36:24;;;;;;;0.60;0.60;;;;;;;7.29;97.42;100512.56;5074348;28;20094;-93
2023/03/01 08:38:50;;;;;;;0.40;0.40;;;;;;;7.10;98.31;100490.47;5075972;28;20098;-94
2023/03/01 08:41:15;;;;;;;;;;;;;;;7.39;98.24;100516.19;5073074;28;20494;-94
2023/03/01 08:43:41;;;;;;;0.50;0.50;;;;;;;7.11;98.82;100489.63;5074174;28;20392;-92
2023/03/01 08:46:07;;;;;;;;;;;;;;;7.39;99.36;100506.56;5073685;28;20470;-93
2023/03/01 08:48:32;;;;;;;0.47;0.47;;;;;;;7.39;98.70;100503.06;5073759;28;19912;-93
2023/03/01 08:51:06;;;;;;;;;;;;;;;7.35;98.82;100516.16;5089711;28;20111;-92
2023/03/01 08:53:31;;;;;;;0.50;0.50;;;;;;;7.32;98.26;100505.63;5072798;28;19970;-94
2023/03/01 08:55:59;;;;;;;;;;;;;;;7.35;98.06;100518.78;5071942;28;20478;-92
2023/03/01 08:58:25;;;;;;;0.40;0.40;;;;;;;7.29;98.10;100507.31;5073085;28;19913;-89
2023/03/01 09:00:50;;;;;;;;;;;;;;;7.53;98.15;100510.22;5072923;28;20028;-92
2023/03/01 09:03:16;;;;;;;;;;;;;;;7.35;97.59;100513.53;5072939;28;19983;-90
2023/03/01 09:05:42;;;;;;;0.52;0.52;;;;;;;7.33;98.05;100512.63;5088780;28;20286;-93
2023/03/01 09:08:08;;;;;;;;;;;;;;;7.44;98.36;100517.13;5072706;28;20043;-91
2023/03/01 09:10:37;;;;;;;0.40;0.40;;;;;;;7.40;98.41;100489.97;5072007;28;20413;-92
2023/03/01 09:13:03;;;;;;;0.45;0.45;;;;;;;7.34;98.63;100476.78;5072481;28;20043;-92
2023/03/01 09:15:28;;;;;;;;;;;;;;;7.65;98.48;100512.09;5073050;28;20036;-91
2023/03/01 09:17:53;;;;;;;;;;;;;;;7.81;98.11;100514.88;5073089;28;19912;-91
2023/03/01 09:20:19;;;;;;;1.07;0.80;;;;;;;7.83;97.61;100497.34;5073265;28;20336;-92
2023/03/01 09:22:44;;;;;;;;;;;;;;;7.73;98.20;100513.91;5073130;28;20036;-92
2023/03/01 09:25:09;;;;;;;;;;;;;;;7.70;97.48;100515.63;5072882;28;19911;-92
2023/03/01 09:27:35;;;;;;;0.50;0.50;;;;;;;7.52;97.65;100487.47;5072438;28;20366;-91
2023/03/01 09:30:00;;;;;;;;;;;;;;;7.63;97.52;100515.56;5072899;28;20021;-91
2023/03/01 09:32:26;;;;;;;1.45;1.27;;;;;;;7.61;97.68;100499.78;5088328;28;20008;-92
2023/03/01 09:35:06;;;;;;;;;;;;;;;7.82;97.38;100509.63;5071871;28;20032;-91
2023/03/01 09:37:33;;;;;;;0.60;0.60;;;;;;;7.52;97.37;100473.44;5072540;28;19912;-91
2023/03/01 09:39:59;;;;;;;0.40;0.40;;;;;;;7.57;97.44;100483.97;5070820;28;20403;-91
2023/03/01 09:42:25;;;;;;;;;;;;;;;7.58;98.02;100510.25;5072728;28;20021;-91
2023/03/01 09:45:11;;;;;;;;;;;;;;;7.56;98.59;100509.38;5072609;28;19923;-92
2023/03/01 09:47:36;;;;;;;0.63;0.63;;;;;;;7.40;98.97;100489.06;5072153;28;20398;-91
2023/03/01 09:50:02;;;;;;;;;;;;;;;7.55;99.18;100506.72;5072208;28;20025;-93
2023/03/01 09:52:41;;;;;;;0.57;0.57;;;;;;;7.40;98.74;100507.44;5071812;28;20382;-91
2023/03/01 09:55:37;;;;;;;0.50;0.50;;;;;;;7.43;99.82;100500.50;5071723;28;20136;-93
2023/03/01 09:58:11;;;;;;;0.50;0.50;;;;;;;7.54;100.00;100492.72;5032872;28;20044;-94
2023/03/01 10:00:43;;;;;;;0.70;0.70;;;;;;;7.41;99.46;100491.69;5049655;28;20049;-96
2023/03/01 10:03:11;;;;;;;0.65;0.65;;;;;;;7.32;98.59;100492.50;5049183;28;20510;-94
2023/03/01 10:05:46;;;;;;;0.50;0.50;;;;;;;7.38;98.98;100488.19;5049267;28;20647;-88
2023/03/01 10:08:30;;;;;;;0.50;0.50;;;;;;;7.75;99.56;100483.28;5050715;28;20569;-89
2023/03/01 10:10:57;;;;;;;0.82;0.82;;;;;;;7.99;98.31;100475.63;5049766;28;20040;-90
2023/03/01 10:13:55;;;;;;;0.40;0.40;;;;;;;7.85;97.41;100482.50;5046017;28;20037;-89
2023/03/01 10:16:42;;;;;;;1.10;1.10;;;;;;;7.41;98.01;100449.69;5049033;28;20028;-89
2023/03/01 10:19:15;;;;;;;0.40;0.40;;;;;;;7.59;98.69;100493.66;5051027;28;20035;-90
2023/03/01 10:21:45;;;;;;;0.40;0.40;;;;;;;7.35;99.52;100486.38;5051486;28;20927;-90
2023/03/01 10:24:14;;;;;;;0.55;0.55;;;;;;;7.16;100.00;100485.31;5055030;28;20075;-91
2023/03/01 10:27:05;;;;;;;0.57;0.57;;;;;;;7.17;100.00;100458.22;5044773;28;20141;-90
2023/03/01 10:29:49;;;;;;;0.50;0.50;;;;;;;7.46;100.00;100476.91;5053616;28;20087;-90
2023/03/01 10:32:18;;;;;;;1.35;1.20;;;;;;;7.12;100.00;100447.66;5047870;28;20079;-92
2023/03/01 10:34:44;;;;;;;0.50;0.50;;;;;;;7.26;100.00;100454.78;5056035;28;20506;-91
2023/03/01 10:37:09;;;;;;;;;;;;;;;7.57;100.00;100479.63;5066234;28;20108;-90
2023/03/01 10:39:34;;;;;;;0.70;0.70;;;;;;;7.42;100.00;100433.09;5064560;28;20014;-89
2023/03/01 10:42:02;;;;;;;;;;;;;;;7.49;100.00;100469.06;5066138;28;20052;-89
2023/03/01 10:44:46;;;;;;;0.50;0.50;;;;;;;7.32;100.00;100478.47;5062875;28;19917;-91
2023/03/01 10:47:16;;;;;;;0.43;0.43;;;;;;;7.05;100.00;100464.19;5058479;28;20032;-91
2023/03/01 10:49:58;;;;;;;0.47;0.47;;;;;;;7.19;100.00;100458.22;5066161;28;20035;-92
2023/03/01 10:52:34;;;;;;;0.47;0.47;;;;;;;7.28;100.00;100471.47;5064554;28;20068;-89
2023/03/01 10:55:04;;;;;;;0.68;0.68;;;;;;;7.00;100.00;100447.53;5068417;28;20483;-90
2023/03/01 10:57:36;;;;;;;0.65;0.65;;;;;;;7.25;100.00;100472.28;5068538;28;20533;-91
2023/03/01 11:00:20;;;;;;;4.20;1.85;;;;;;;7.31;100.00;100477.59;5068959;28;20395;-91
2023/03/01 11:02:51;;;;;;;0.40;0.40;;;;;;;7.39;100.00;100458.44;5069623;28;20033;-91
2023/03/01 11:05:23;;;;;;;1.02;1.02;;;;;;;7.14;100.00;100422.31;5069225;28;20568;-92
2023/03/01 11:07:57;;;;;;;0.65;0.65;;;;;;;7.39;100.00;100451.44;5069765;28;20036;-91
2023/03/01 11:10:29;;;;;;;0.40;0.40;;;;;;;7.61;100.00;100441.16;5072575;28;20051;-91
2023/03/01 11:13:08;;;;;;;0.63;0.63;;;;;;;7.32;100.00;100403.25;5075676;28;20032;-90
2023/03/01 11:15:34;;;;;;;0.77;0.77;;;;;;;7.30;100.00;100406.72;5080200;28;20460;-91
2023/03/01 11:18:00;;;;;;;2.17;0.95;;;;;;;7.44;100.00;100419.97;5076677;28;20032;-91
2023/03/01 11:20:37;;;;;;;0.40;0.40;;;;;;;7.24;100.00;100404.91;5085230;28;20040;-89
2023/03/01 11:23:08;;;;;;;0.68;0.68;;;;;;;7.53;100.00;100423.56;5096240;28;20029;-86
2023/03/01 11:25:41;;;;;;;0.82;0.68;;;;;;;7.53;100.00;100402.56;5092181;28;20119;-88
2023/03/01 11:28:14;;;;;;;0.40;0.40;;;;;;;7.76;100.00;100414.16;5074093;28;20020;-89
2023/03/01 11:30:55;;;;;;;0.60;0.60;;;;;;;7.50;98.30;100422.66;5074182;28;20028;-90
2023/03/01 11:33:44;;;;;;;0.70;0.70;;;;;;;7.54;98.08;100416.59;5074453;28;20032;-90
2023/03/01 11:36:29;;;;;;;0.63;0.63;;;;;;;7.66;98.35;100414.06;5074584;28;20020;-89
2023/03/01 11:38:56;;;;;;;0.63;0.63;;;;;;;7.39;97.79;100404.19;5073713;28;20035;-90
2023/03/01 11:41:26;;;;;;;0.50;0.50;;;;;;;7.38;97.70;100385.81;5073912;28;20033;-90
2023/03/01 11:44:01;;;;;;;1.02;0.95;;;;;;;7.48;98.18;100392.91;5073242;28;20115;-92
2023/03/01 11:46:29;;;;;;;0.85;0.85;;;;;;;7.41;97.94;100399.81;5073817;28;20483;-91
2023/03/01 11:49:26;;;;;;;0.50;0.50;;;;;;;7.51;98.98;100398.19;5072038;28;20410;-92
2023/03/01 11:51:51;;;;;;;0.40;0.40;;;;;;;7.41;98.02;100391.09;5073598;28;20115;-91
2023/03/01 11:54:37;;;;;;;;;;;;;;;7.43;96.96;100394.59;5074431;28;20103;-92
2023/03/01 11:57:27;;;;;;;1.88;1.77;;;;;;;7.58;98.29;100397.34;5071494;28;19916;-91
2023/03/01 11:59:58;;;;;;;0.95;0.95;;;;;;;7.58;98.02;100389.47;5073574;28;20032;-90
2023/03/01 12:02:50;;;;;;;0.40;0.40;;;;;;;7.64;98.03;100380.78;5073434;28;20037;-91